createdAt,value
2019-05-14T00:01:26.271Z,52.53
2019-05-14T00:03:58.935Z,52.03
2019-05-14T00:06:31.579Z,52.27
2019-05-14T00:09:04.815Z,53.82
2019-05-14T00:11:37.378Z,54.52
2019-05-14T00:14:11.622Z,53.78
2019-05-14T00:16:44.384Z,53.73
2019-05-14T00:19:17.747Z,52.92
2019-05-14T00:21:51.455Z,53.68
2019-05-14T00:24:24.130Z,52.54
2019-05-14T00:26:56.739Z,52.42
2019-05-14T00:29:29.378Z,51.97
2019-05-14T00:32:02.134Z,51.91
2019-05-14T00:34:34.757Z,52.18
2019-05-14T00:37:07.411Z,51.82
2019-05-14T00:39:41.608Z,51.50
2019-05-14T00:42:14.087Z,51.42
2019-05-14T00:44:54.463Z,52.21
2019-05-14T00:47:21.675Z,51.96
2019-05-14T00:49:54.574Z,52.10
2019-05-14T00:52:27.121Z,52.80
2019-05-14T00:55:01.130Z,51.99
2019-05-14T00:57:33.895Z,52.56
2019-05-14T01:00:07.162Z,51.70
2019-05-14T01:02:41.514Z,52.40
2019-05-14T01:05:14.390Z,52.93
2019-05-14T01:07:47.077Z,52.68
2019-05-14T01:10:21.994Z,52.45
2019-05-14T01:12:54.235Z,52.53
2019-05-14T01:15:26.866Z,52.14
2019-05-14T01:18:01.938Z,52.02
2019-05-14T01:20:33.965Z,51.87
2019-05-14T01:23:06.586Z,52.56
2019-05-14T01:25:39.163Z,52.79
2019-05-14T01:28:11.832Z,53.22
2019-05-14T01:30:44.423Z,54.32
2019-05-14T01:33:17.048Z,52.74
2019-05-14T01:35:51.450Z,53.53
2019-05-14T01:38:24.080Z,53.96
2019-05-14T01:40:56.741Z,54.31
2019-05-14T01:43:31.464Z,54.25
2019-05-14T01:46:04.000Z,53.60
2019-05-14T01:48:36.671Z,54.26
2019-05-14T01:51:11.738Z,54.49
2019-05-14T01:53:43.825Z,54.62
2019-05-14T01:56:16.415Z,55.31
2019-05-14T01:58:52.393Z,54.62
2019-05-14T02:01:25.064Z,56.19
2019-05-14T02:03:57.613Z,54.29
2019-05-14T02:06:31.800Z,54.26
2019-05-14T02:09:05.663Z,55.80
2019-05-14T02:11:38.311Z,55.78
2019-05-14T02:14:11.637Z,56.36
2019-05-14T02:16:44.369Z,56.98
2019-05-14T02:19:17.011Z,55.73
2019-05-14T02:21:51.474Z,55.49
2019-05-14T02:24:23.994Z,54.27
2019-05-14T02:26:56.616Z,53.22
2019-05-14T02:29:29.247Z,54.41
2019-05-14T02:32:01.899Z,55.45
2019-05-14T02:34:34.534Z,54.27
2019-05-14T02:37:09.260Z,54.16
2019-05-14T02:39:41.642Z,53.82
2019-05-14T02:42:14.289Z,54.01
2019-05-14T02:44:48.755Z,53.48
2019-05-14T02:47:20.403Z,52.40
2019-05-14T02:49:53.104Z,54.47
2019-05-14T02:52:25.695Z,54.81
2019-05-14T02:54:59.733Z,54.38
2019-05-14T02:57:39.411Z,54.65
2019-05-14T03:00:12.920Z,54.87
2019-05-14T03:02:45.569Z,55.80
2019-05-14T03:05:19.217Z,55.44
2019-05-14T03:07:52.110Z,53.11
2019-05-14T03:10:24.822Z,55.74
2019-05-14T03:12:59.078Z,55.55
2019-05-14T03:15:31.899Z,55.69
2019-05-14T03:18:04.505Z,55.86
2019-05-14T03:20:39.038Z,56.54
2019-05-14T03:23:18.032Z,58.44
2019-05-14T03:25:49.122Z,57.60
2019-05-14T03:28:20.398Z,57.47
2019-05-14T03:30:53.501Z,56.05
2019-05-14T03:33:32.327Z,57.58
2019-05-14T03:36:08.411Z,57.94
2019-05-14T03:38:35.125Z,57.89
2019-05-14T03:41:09.786Z,57.79
2019-05-14T03:43:42.162Z,58.89
2019-05-14T03:46:15.077Z,56.89
2019-05-14T03:48:49.277Z,57.85
2019-05-14T03:51:22.102Z,58.82
2019-05-14T03:54:01.972Z,57.09
2019-05-14T03:56:29.881Z,58.58
2019-05-14T03:59:02.967Z,58.87
2019-05-14T04:01:39.698Z,58.31
2019-05-14T04:04:11.189Z,57.34
2019-05-14T04:06:49.354Z,57.29
2019-05-14T04:09:23.245Z,58.29
2019-05-14T04:11:59.570Z,57.56
2019-05-14T04:14:34.757Z,57.53
2019-05-14T04:17:15.180Z,57.05
2019-05-14T04:19:49.536Z,56.83
2019-05-14T04:22:24.791Z,55.86
2019-05-14T04:25:00.156Z,57.77
2019-05-14T04:27:35.682Z,57.55
2019-05-14T04:30:10.383Z,55.88
2019-05-14T04:32:43.888Z,56.44
2019-05-14T04:35:16.073Z,55.32
2019-05-14T04:37:49.686Z,56.01
2019-05-14T04:40:22.451Z,57.19
2019-05-14T04:42:55.199Z,57.32
2019-05-14T04:45:29.659Z,57.90
2019-05-14T04:48:02.075Z,58.07
2019-05-14T04:50:34.651Z,56.59
2019-05-14T04:53:09.057Z,57.03
2019-05-14T04:55:41.703Z,57.96
2019-05-14T04:58:14.474Z,58.32
2019-05-14T05:00:49.934Z,56.15
2019-05-14T05:03:21.517Z,57.40
2019-05-14T05:05:54.128Z,58.38
2019-05-14T05:08:30.036Z,55.51
2019-05-14T05:11:01.246Z,56.70
2019-05-14T05:13:33.925Z,55.03
2019-05-14T05:16:09.628Z,56.84
2019-05-14T05:18:40.855Z,55.22
2019-05-14T05:21:13.578Z,56.94
2019-05-14T05:23:46.330Z,55.67
2019-05-14T05:26:19.035Z,53.95
2019-05-14T05:29:03.595Z,55.01
2019-05-14T05:31:25.969Z,56.80
2019-05-14T05:33:58.542Z,55.67
2019-05-14T05:36:31.172Z,53.71
2019-05-14T05:39:04.428Z,55.03
2019-05-14T05:41:38.466Z,54.54
2019-05-14T05:44:11.267Z,55.40
2019-05-14T05:46:43.910Z,53.12
2019-05-14T05:49:18.705Z,53.81
2019-05-14T05:51:50.884Z,53.42
2019-05-14T05:54:23.504Z,53.33
2019-05-14T05:56:58.153Z,52.55
2019-05-14T05:59:30.456Z,52.78
2019-05-14T06:02:03.467Z,51.65
2019-05-14T06:04:36.104Z,52.67
2019-05-14T06:07:09.010Z,54.30
2019-05-14T06:09:41.682Z,52.00
2019-05-14T06:12:15.334Z,52.77
2019-05-14T06:14:48.699Z,52.69
2019-05-14T06:17:21.627Z,50.01
2019-05-14T06:19:55.329Z,53.54
2019-05-14T06:22:28.125Z,52.70
2019-05-14T06:25:00.768Z,52.17
2019-05-14T06:27:33.525Z,50.71
2019-05-14T06:30:09.085Z,48.22
2019-05-14T06:32:41.800Z,48.85
2019-05-14T06:35:14.189Z,52.71
2019-05-14T06:37:48.816Z,50.60
2019-05-14T06:40:21.093Z,50.51
2019-05-14T06:42:53.716Z,50.88
2019-05-14T06:45:29.050Z,49.90
2019-05-14T06:48:00.679Z,51.38
2019-05-14T06:50:33.336Z,50.41
2019-05-14T06:53:08.379Z,50.52
2019-05-14T06:55:40.266Z,49.35
2019-05-14T06:58:13.093Z,51.59
2019-05-14T07:00:45.697Z,51.88
2019-05-14T07:03:18.419Z,50.87
2019-05-14T07:05:51.142Z,49.30
2019-05-14T07:08:23.810Z,50.08
2019-05-14T07:10:59.024Z,48.85
2019-05-14T07:13:31.109Z,47.33
2019-05-14T07:16:03.836Z,49.51
2019-05-14T07:18:46.386Z,46.23
2019-05-14T07:21:11.041Z,47.53
2019-05-14T07:23:43.774Z,46.95
2019-05-14T07:26:19.019Z,46.93
2019-05-14T07:28:50.961Z,46.79
2019-05-14T07:31:23.760Z,46.84
2019-05-14T07:33:58.279Z,44.44
2019-05-14T07:36:31.112Z,44.88
2019-05-14T07:39:04.916Z,45.07
2019-05-14T07:41:39.054Z,43.17
2019-05-14T07:44:11.985Z,40.85
2019-05-14T07:46:44.745Z,41.04
2019-05-14T07:49:18.491Z,41.65
2019-05-14T07:51:51.247Z,41.64
2019-05-14T07:54:24.153Z,41.93
2019-05-14T07:56:58.952Z,42.42
2019-05-14T07:59:31.411Z,40.79
2019-05-14T08:02:04.100Z,38.51
2019-05-14T08:04:38.082Z,40.67
2019-05-14T08:07:11.057Z,40.72
2019-05-14T08:09:43.809Z,39.41
2019-05-14T08:12:19.190Z,40.48
2019-05-14T08:15:11.063Z,38.99
2019-05-14T08:17:27.978Z,38.74
2019-05-14T08:19:59.910Z,37.53
2019-05-14T08:22:32.643Z,39.70
2019-05-14T08:25:05.871Z,37.83
2019-05-14T08:27:39.780Z,38.68
2019-05-14T08:30:14.474Z,37.45
2019-05-14T08:32:48.994Z,38.44
2019-05-14T08:35:22.099Z,38.51
2019-05-14T08:38:05.558Z,39.16
2019-05-14T08:40:29.171Z,38.40
2019-05-14T08:43:01.935Z,39.49
2019-05-14T08:45:34.735Z,36.81
2019-05-14T08:48:09.230Z,36.41
2019-05-14T08:50:42.090Z,35.39
2019-05-14T08:53:14.925Z,34.60
2019-05-14T08:55:48.801Z,36.36
2019-05-14T08:58:21.877Z,37.34
2019-05-14T09:00:54.636Z,37.54
2019-05-14T09:03:28.763Z,39.54
2019-05-14T09:06:01.629Z,36.15
2019-05-14T09:08:34.427Z,36.44
2019-05-14T09:11:09.758Z,38.01
2019-05-14T09:13:41.581Z,37.22
2019-05-14T09:16:14.432Z,35.63
2019-05-14T09:18:49.095Z,35.43
2019-05-14T09:21:21.643Z,35.98
2019-05-14T09:23:54.409Z,36.60
2019-05-14T09:26:28.492Z,37.58
2019-05-14T09:29:17.004Z,32.45
2019-05-14T09:31:35.654Z,35.64
2019-05-14T09:34:09.202Z,33.60
2019-05-14T09:36:42.106Z,33.31
2019-05-14T09:39:14.846Z,38.10
2019-05-14T09:41:48.254Z,32.15
2019-05-14T09:44:21.050Z,33.84
2019-05-14T09:46:53.700Z,32.79
2019-05-14T09:49:28.260Z,34.83
2019-05-14T09:52:00.900Z,34.96
2019-05-14T09:54:33.688Z,34.42
2019-05-14T09:57:08.334Z,33.37
2019-05-14T09:59:40.959Z,34.14
2019-05-14T10:02:13.900Z,32.51
2019-05-14T10:04:48.736Z,31.34
2019-05-14T10:07:20.224Z,30.10
2019-05-14T10:09:52.953Z,29.37
2019-05-14T10:12:25.666Z,31.41
2019-05-14T10:14:59.241Z,32.05
2019-05-14T10:17:32.076Z,31.14
2019-05-14T10:20:05.093Z,29.48
2019-05-14T10:22:39.772Z,34.02
2019-05-14T10:25:12.331Z,30.48
2019-05-14T10:27:45.028Z,34.07
2019-05-14T10:30:18.299Z,33.13
2019-05-14T10:32:51.057Z,33.15
2019-05-14T10:35:23.707Z,30.92
2019-05-14T10:37:59.659Z,31.45
2019-05-14T10:40:30.825Z,29.80
2019-05-14T10:43:03.538Z,32.36
2019-05-14T10:45:38.390Z,31.45
2019-05-14T10:48:10.745Z,33.08
2019-05-14T10:50:56.394Z,30.67
2019-05-14T10:53:20.341Z,30.08
2019-05-14T10:55:52.658Z,33.65
2019-05-14T10:58:25.538Z,35.13
2019-05-14T11:00:59.076Z,32.07
2019-05-14T11:03:31.802Z,31.70
2019-05-14T11:06:04.539Z,32.63
2019-05-14T11:08:38.697Z,37.87
2019-05-14T11:11:11.581Z,28.86
2019-05-14T11:13:44.451Z,29.97
2019-05-14T11:16:19.005Z,29.56
2019-05-14T11:18:51.791Z,31.91
2019-05-14T11:21:26.809Z,30.87
2019-05-14T11:23:58.956Z,33.72
2019-05-14T11:26:31.690Z,33.04
2019-05-14T11:29:04.435Z,31.42
2019-05-14T11:31:39.101Z,28.83
2019-05-14T11:34:11.708Z,31.78
2019-05-14T11:36:44.514Z,32.95
2019-05-14T11:39:18.082Z,32.31
2019-05-14T11:41:50.864Z,34.11
2019-05-14T11:44:23.617Z,32.16
2019-05-14T11:46:58.110Z,33.15
2019-05-14T11:49:30.865Z,29.24
2019-05-14T11:52:07.881Z,34.20
2019-05-14T11:54:41.051Z,34.88
2019-05-14T11:57:12.589Z,33.51
2019-05-14T11:59:45.252Z,35.85
2019-05-14T12:02:18.827Z,29.15
2019-05-14T12:04:51.851Z,29.71
2019-05-14T12:07:24.635Z,27.81
2019-05-14T12:09:57.386Z,32.09
2019-05-14T12:12:30.106Z,31.86
2019-05-14T12:15:02.871Z,33.47
2019-05-14T12:17:35.597Z,31.43
2019-05-14T12:20:09.500Z,34.75
2019-05-14T12:22:42.225Z,32.84
2019-05-14T12:25:15.490Z,30.48
2019-05-14T12:27:49.530Z,32.23
2019-05-14T12:30:22.890Z,30.93
2019-05-14T12:32:55.728Z,32.23
2019-05-14T12:35:29.200Z,29.70
2019-05-14T12:38:02.167Z,32.30
2019-05-14T12:40:34.880Z,27.81
2019-05-14T12:43:09.630Z,29.39
2019-05-14T12:45:42.134Z,32.47
2019-05-14T12:48:14.899Z,28.16
2019-05-14T12:50:48.852Z,30.80
2019-05-14T12:53:22.064Z,28.42
2019-05-14T12:55:54.904Z,28.15
2019-05-14T12:58:28.531Z,33.83
2019-05-14T13:01:01.480Z,30.95
2019-05-14T13:03:34.373Z,33.38
2019-05-14T13:06:10.037Z,31.69
2019-05-14T13:08:41.537Z,33.43
2019-05-14T13:11:14.301Z,34.78
2019-05-14T13:13:49.033Z,31.74
2019-05-14T13:16:21.451Z,30.51
2019-05-14T13:18:54.329Z,27.48
2019-05-14T13:21:28.950Z,29.18
2019-05-14T13:24:01.491Z,27.77
2019-05-14T13:26:34.269Z,29.60
2019-05-14T13:29:10.093Z,30.98
2019-05-14T13:31:41.443Z,29.48
2019-05-14T13:34:14.134Z,30.32
2019-05-14T13:36:48.850Z,34.31
2019-05-14T13:39:21.232Z,28.91
2019-05-14T13:41:53.951Z,29.58
2019-05-14T13:44:28.966Z,26.72
2019-05-14T13:47:01.102Z,29.58
2019-05-14T13:49:33.811Z,30.93
2019-05-14T13:52:09.325Z,28.97
2019-05-14T13:54:41.381Z,27.04
2019-05-14T13:57:14.175Z,27.84
2019-05-14T13:59:49.345Z,29.66
2019-05-14T14:02:21.377Z,29.09
2019-05-14T14:04:54.161Z,26.29
2019-05-14T14:07:26.994Z,28.37
2019-05-14T14:09:59.793Z,29.16
2019-05-14T14:12:32.643Z,45.73
2019-05-14T14:15:09.176Z,28.62
2019-05-14T14:17:40.648Z,28.32
2019-05-14T14:20:14.097Z,29.37
2019-05-14T14:22:49.056Z,29.79
2019-05-14T14:25:21.376Z,29.10
2019-05-14T14:27:54.185Z,28.20
2019-05-14T14:30:28.553Z,29.33
2019-05-14T14:33:01.311Z,28.42
2019-05-14T14:35:34.251Z,28.67
2019-05-14T14:38:08.725Z,30.00
2019-05-14T14:40:41.756Z,29.70
2019-05-14T14:43:14.621Z,26.82
2019-05-14T14:45:50.538Z,25.12
2019-05-14T14:48:21.029Z,24.96
2019-05-14T14:50:53.845Z,27.93
2019-05-14T14:53:42.813Z,29.48
2019-05-14T14:56:01.100Z,27.41
2019-05-14T14:58:33.879Z,27.68
2019-05-14T15:01:08.782Z,29.28
2019-05-14T15:03:41.070Z,26.58
2019-05-14T15:06:13.768Z,29.62
2019-05-14T15:08:49.374Z,28.57
2019-05-14T15:11:20.940Z,26.85
2019-05-14T15:13:53.733Z,25.76
2019-05-14T15:16:29.114Z,28.23
2019-05-14T15:19:00.897Z,26.31
2019-05-14T15:21:33.758Z,27.25
2019-05-14T15:24:14.231Z,29.41
2019-05-14T15:26:41.013Z,27.64
2019-05-14T15:29:13.719Z,28.49
2019-05-14T15:31:48.552Z,27.67
2019-05-14T15:34:20.785Z,26.08
2019-05-14T15:36:53.614Z,28.54
2019-05-14T15:39:26.402Z,27.00
2019-05-14T15:42:05.394Z,28.56
2019-05-14T15:44:47.286Z,28.34
2019-05-14T15:47:11.602Z,26.92
2019-05-14T15:49:42.573Z,28.46
2019-05-14T15:52:15.418Z,27.12
2019-05-14T15:54:50.439Z,27.03
2019-05-14T15:57:22.520Z,29.55
2019-05-14T15:59:55.240Z,28.76
2019-05-14T16:02:29.681Z,29.59
2019-05-14T16:05:02.696Z,29.67
2019-05-14T16:07:35.520Z,30.49
2019-05-14T16:10:08.789Z,27.73
2019-05-14T16:12:44.495Z,28.72
2019-05-14T16:15:18.821Z,29.35
2019-05-14T16:18:05.730Z,29.54
2019-05-14T16:20:26.214Z,29.38
2019-05-14T16:23:00.546Z,31.71
2019-05-14T16:25:33.336Z,29.81
2019-05-14T16:28:08.557Z,29.47
2019-05-14T16:30:40.422Z,30.13
2019-05-14T16:33:13.157Z,30.44
2019-05-14T16:35:45.885Z,31.05
2019-05-14T16:38:18.667Z,31.18
2019-05-14T16:40:51.357Z,32.15
2019-05-14T16:43:24.135Z,32.47
2019-05-14T16:45:59.585Z,34.50
2019-05-14T16:48:31.309Z,33.71
2019-05-14T16:51:03.990Z,35.67
2019-05-14T16:53:38.008Z,36.58
2019-05-14T16:56:10.770Z,35.19
2019-05-14T16:58:43.487Z,35.87
2019-05-14T17:01:19.258Z,35.03
2019-05-14T17:03:51.242Z,37.12
2019-05-14T17:06:23.946Z,37.72
2019-05-14T17:08:59.305Z,36.49
2019-05-14T17:11:31.188Z,36.27
2019-05-14T17:14:03.862Z,37.96
2019-05-14T17:16:36.562Z,38.17
2019-05-14T17:19:09.417Z,36.45
2019-05-14T17:21:42.722Z,38.89
2019-05-14T17:24:15.621Z,36.17
2019-05-14T17:26:48.843Z,39.88
2019-05-14T17:29:21.856Z,38.51
2019-05-14T17:31:54.564Z,39.11
2019-05-14T17:34:29.248Z,39.54
2019-05-14T17:37:01.784Z,38.88
2019-05-14T17:39:34.506Z,38.18
2019-05-14T17:42:11.362Z,37.56
2019-05-14T17:44:42.029Z,39.33
2019-05-14T17:47:14.683Z,40.34
2019-05-14T17:49:48.516Z,40.43
2019-05-14T17:52:22.063Z,41.97
2019-05-14T17:54:54.810Z,41.58
2019-05-14T17:57:34.262Z,42.19
2019-05-14T18:00:02.135Z,42.48
2019-05-14T18:02:34.889Z,41.87
2019-05-14T18:05:09.488Z,42.35
2019-05-14T18:07:42.567Z,42.44
2019-05-14T18:10:15.638Z,40.21
2019-05-14T18:12:48.535Z,42.68
2019-05-14T18:15:21.259Z,40.78
2019-05-14T18:17:53.951Z,41.19
2019-05-14T18:20:28.615Z,43.99
2019-05-14T18:23:01.170Z,42.92
2019-05-14T18:25:33.872Z,41.74
2019-05-14T18:28:09.703Z,44.60
2019-05-14T18:30:42.396Z,44.09
2019-05-14T18:33:15.127Z,44.71
2019-05-14T18:35:50.603Z,44.06
2019-05-14T18:38:22.224Z,43.63
2019-05-14T18:40:55.685Z,44.18
2019-05-14T18:43:29.045Z,46.17
2019-05-14T18:46:01.828Z,47.52
2019-05-14T18:48:34.812Z,42.74
2019-05-14T18:51:08.941Z,44.33
2019-05-14T18:53:41.856Z,46.02
2019-05-14T18:56:20.317Z,43.87
2019-05-14T18:58:49.179Z,46.85
2019-05-14T19:01:21.864Z,46.36
2019-05-14T19:03:54.475Z,47.55
2019-05-14T19:06:28.326Z,44.64
2019-05-14T19:09:01.567Z,44.92
2019-05-14T19:11:34.366Z,44.53
2019-05-14T19:14:08.995Z,44.79
2019-05-14T19:16:40.991Z,46.10
2019-05-14T19:19:13.567Z,44.38
2019-05-14T19:21:50.942Z,43.46
2019-05-14T19:24:23.637Z,44.98
2019-05-14T19:26:56.340Z,47.88
2019-05-14T19:29:29.535Z,46.59
2019-05-14T19:32:02.265Z,46.23
2019-05-14T19:34:34.948Z,46.58
2019-05-14T19:37:08.298Z,46.30
2019-05-14T19:39:40.326Z,44.82
2019-05-14T19:42:13.138Z,46.59
2019-05-14T19:44:48.124Z,48.23
2019-05-14T19:47:20.062Z,47.46
2019-05-14T19:49:52.646Z,47.29
2019-05-14T19:52:25.305Z,49.75
2019-05-14T19:54:58.100Z,48.97
2019-05-14T19:57:30.818Z,48.35
2019-05-14T20:00:03.588Z,51.94
2019-05-14T20:02:36.244Z,52.03
2019-05-14T20:05:09.418Z,53.83
2019-05-14T20:07:42.200Z,53.35
2019-05-14T20:10:15.276Z,53.71
2019-05-14T20:12:48.260Z,55.80
2019-05-14T20:15:21.385Z,55.55
2019-05-14T20:17:54.226Z,52.83
2019-05-14T20:20:28.815Z,53.92
2019-05-14T20:23:01.359Z,55.83
2019-05-14T20:25:34.127Z,55.02
2019-05-14T20:28:08.122Z,54.60
2019-05-14T20:30:40.903Z,49.90
2019-05-14T20:33:13.640Z,53.17
2019-05-14T20:35:48.471Z,50.44
2019-05-14T20:38:20.749Z,48.22
2019-05-14T20:40:53.334Z,48.06
2019-05-14T20:43:26.123Z,46.68
2019-05-14T20:45:59.485Z,47.34
2019-05-14T20:48:32.177Z,45.39
2019-05-14T20:51:04.829Z,47.02
2019-05-14T20:53:39.674Z,47.74
2019-05-14T20:56:12.079Z,46.98
2019-05-14T20:58:44.867Z,47.40
2019-05-14T21:01:18.370Z,47.45
2019-05-14T21:03:51.268Z,45.09
2019-05-14T21:06:23.430Z,44.71
2019-05-14T21:08:58.300Z,45.25
2019-05-14T21:11:30.603Z,47.76
2019-05-14T21:14:03.178Z,44.80
2019-05-14T21:16:35.925Z,46.12
2019-05-14T21:19:08.680Z,49.29
2019-05-14T21:21:41.323Z,47.22
2019-05-14T21:24:13.876Z,45.98
2019-05-14T21:26:46.578Z,46.22
2019-05-14T21:29:19.334Z,46.02
2019-05-14T21:31:51.959Z,49.30
2019-05-14T21:34:24.606Z,48.38
2019-05-14T21:36:58.524Z,47.95
2019-05-14T21:39:31.250Z,49.68
2019-05-14T21:42:03.786Z,49.67
2019-05-14T21:44:36.401Z,49.14
2019-05-14T21:47:09.167Z,49.33
2019-05-14T21:49:41.741Z,49.79
2019-05-14T21:52:14.371Z,48.09
2019-05-14T21:54:48.060Z,49.33
2019-05-14T21:57:20.359Z,48.70
2019-05-14T21:59:53.376Z,49.10
2019-05-14T22:02:28.264Z,49.47
2019-05-14T22:05:01.536Z,49.52
2019-05-14T22:07:34.668Z,49.44
2019-05-14T22:10:08.746Z,51.06
2019-05-14T22:12:40.629Z,50.51
2019-05-14T22:15:14.141Z,50.19
2019-05-14T22:17:48.982Z,51.64
2019-05-14T22:20:21.231Z,51.76
2019-05-14T22:22:53.976Z,52.31
2019-05-14T22:25:28.443Z,52.27
2019-05-14T22:28:11.163Z,51.51
2019-05-14T22:30:35.535Z,52.77
2019-05-14T22:33:08.733Z,51.34
2019-05-14T22:35:40.727Z,51.52
2019-05-14T22:38:13.518Z,53.62
2019-05-14T22:40:48.250Z,54.16
2019-05-14T22:43:20.630Z,54.02
2019-05-14T22:45:53.342Z,55.54
2019-05-14T22:48:25.199Z,58.08
2019-05-14T22:50:59.266Z,53.99
2019-05-14T22:53:32.077Z,54.39
2019-05-14T22:56:04.829Z,56.61
2019-05-14T22:58:38.246Z,56.95
2019-05-14T23:01:14.764Z,58.32
2019-05-14T23:03:45.554Z,58.89
2019-05-14T23:06:18.877Z,60.56
2019-05-14T23:08:51.573Z,59.41
2019-05-14T23:11:24.335Z,55.15
2019-05-14T23:13:58.215Z,57.52
2019-05-14T23:16:37.300Z,58.47
2019-05-14T23:19:05.210Z,59.50
2019-05-14T23:21:39.124Z,57.26
2019-05-14T23:24:11.888Z,55.16
2019-05-14T23:26:44.476Z,56.74
2019-05-14T23:29:17.116Z,56.79
2019-05-14T23:31:50.156Z,58.57
2019-05-14T23:34:22.867Z,59.78
2019-05-14T23:36:55.860Z,60.59
2019-05-14T23:39:29.333Z,60.77
2019-05-14T23:42:01.955Z,60.38
2019-05-14T23:44:34.610Z,62.63
2019-05-14T23:47:08.286Z,63.35
2019-05-14T23:49:41.031Z,60.09
2019-05-14T23:52:13.787Z,59.13
2019-05-14T23:54:48.070Z,55.68
2019-05-14T23:57:20.757Z,56.93
2019-05-14T23:59:53.334Z,57.38
